バミューダ の空港の天気 - METARとTAF

バミューダ国際空港 ( TXKF / BDA ) - バミューダ諸島 Ferry Reach
飛行場実況気象(Metar)
観測時間02/17 09:55 AST (02/17 13:55 UTC)
風向・風速南西 11m/s
視程10km以上
天気現象
少しの雲 雲底高度 460m
全天の8割程度の雲 雲底高度 2130m
全天の8割程度の雲 雲底高度 3960m
全天の8割程度の雲 雲底高度 9140m
気温21℃
湿度88%
気圧1015hPa
METARTXKF 171355Z 23021KT 9999 FEW015 BKN070 BKN130 BKN300 21/19 Q1015
過去の天気等 Google飛行場航空写真 Wunderground天気予報

過去48時間のMETAR

飛行場予報(TAF)
発表時間: 2/17 07:33 AST (2/17 11:33 UTC)
予報対象時間: 17日8時 AST ~ 18日8時 AST
風向・風速西南西 8m/s
視程10km以上
天気現象周辺でしゅう雨
少しの雲 雲底高度 370m
全天の4割程度の雲 雲底高度 1520m
全天の8割程度の雲 雲底高度 6100m
17日17時 AST ~ 17日20時 AST に徐々に
風向・風速西北西 5m/s
TAF TXKF 171133Z 1712/1812 24015KT 9999 VCSH FEW012 SCT050 BKN200
BECMG 1721/1724 29010KT